Sentmenat, Spain
Current Conditions -  °F | °C
As of 5:30 PM on Thursday 30 Oct 2014 (Local Time) from LELL Reporting Station
Few Clouds Few Clouds  
Wind Chill: 66°   Ceiling: Unl
Heat Index: 66°   Visibility: 4mi
Dew Point: 63°   Wind: 6mph
Humidity: 88%   Direction: 120°ESE
Pressure: 30.21"   Gusts: NA
Location:  41.61°N, 2.14°E
Report Text: LELL 301630Z 12005KT 080V150 7000 FEW009 19/17 Q1023
Loading
Personal Weather Stations






























Interactive Weather Map
Tropical Storm Tracking
New forecast layout! Learn more

10-Day Weather Forecast

Advertisements
Track Severe Weather on mobile